sensor_id;sensor_type;location;lat;lon;timestamp;P1;durP1;ratioP1;P2;durP2;ratioP2
20824;SDS011;10573;50.936;6.978;2023-05-10T00:01:07;9.70;;;8.10;;
20824;SDS011;10573;50.936;6.978;2023-05-10T00:03:32;9.87;;;8.67;;
20824;SDS011;10573;50.936;6.978;2023-05-10T00:05:58;11.07;;;9.10;;
20824;SDS011;10573;50.936;6.978;2023-05-10T00:08:23;8.93;;;8.03;;
20824;SDS011;10573;50.936;6.978;2023-05-10T00:10:49;10.80;;;9.18;;
20824;SDS011;10573;50.936;6.978;2023-05-10T00:13:14;12.37;;;11.03;;
20824;SDS011;10573;50.936;6.978;2023-05-10T00:15:40;10.27;;;8.90;;
20824;SDS011;10573;50.936;6.978;2023-05-10T00:18:05;10.82;;;9.73;;
20824;SDS011;10573;50.936;6.978;2023-05-10T00:20:31;10.97;;;9.73;;
20824;SDS011;10573;50.936;6.978;2023-05-10T00:22:56;10.68;;;9.48;;
20824;SDS011;10573;50.936;6.978;2023-05-10T00:25:22;11.03;;;9.93;;
20824;SDS011;10573;50.936;6.978;2023-05-10T00:27:47;11.68;;;10.27;;
20824;SDS011;10573;50.936;6.978;2023-05-10T00:30:13;12.00;;;10.80;;
20824;SDS011;10573;50.936;6.978;2023-05-10T00:32:38;12.77;;;10.63;;
20824;SDS011;10573;50.936;6.978;2023-05-10T00:35:04;11.60;;;10.40;;
20824;SDS011;10573;50.936;6.978;2023-05-10T00:37:30;13.20;;;10.93;;
20824;SDS011;10573;50.936;6.978;2023-05-10T00:39:55;14.13;;;10.87;;
20824;SDS011;10573;50.936;6.978;2023-05-10T00:42:21;11.63;;;10.33;;
20824;SDS011;10573;50.936;6.978;2023-05-10T00:44:47;12.77;;;10.80;;
20824;SDS011;10573;50.936;6.978;2023-05-10T00:47:12;12.53;;;10.53;;
20824;SDS011;10573;50.936;6.978;2023-05-10T00:49:38;12.07;;;10.77;;
20824;SDS011;10573;50.936;6.978;2023-05-10T00:52:03;13.90;;;11.23;;
20824;SDS011;10573;50.936;6.978;2023-05-10T00:54:29;14.23;;;11.10;;
20824;SDS011;10573;50.936;6.978;2023-05-10T00:56:55;13.98;;;11.65;;
20824;SDS011;10573;50.936;6.978;2023-05-10T00:59:22;12.63;;;11.27;;
20824;SDS011;10573;50.936;6.978;2023-05-10T01:01:48;13.10;;;11.35;;
20824;SDS011;10573;50.936;6.978;2023-05-10T01:04:13;14.45;;;11.77;;
20824;SDS011;10573;50.936;6.978;2023-05-10T01:06:40;16.00;;;12.45;;
20824;SDS011;10573;50.936;6.978;2023-05-10T01:09:06;15.65;;;12.98;;
20824;SDS011;10573;50.936;6.978;2023-05-10T01:11:38;15.37;;;12.03;;
20824;SDS011;10573;50.936;6.978;2023-05-10T01:14:04;14.82;;;12.30;;
20824;SDS011;10573;50.936;6.978;2023-05-10T01:16:38;15.82;;;12.80;;
20824;SDS011;10573;50.936;6.978;2023-05-10T01:30:28;16.75;;;12.85;;
20824;SDS011;10573;50.936;6.978;2023-05-10T01:33:19;15.93;;;12.57;;
20824;SDS011;10573;50.936;6.978;2023-05-10T01:35:55;15.40;;;12.45;;
20824;SDS011;10573;50.936;6.978;2023-05-10T01:46:33;13.60;;;11.68;;
20824;SDS011;10573;50.936;6.978;2023-05-10T01:49:02;14.18;;;11.38;;
20824;SDS011;10573;50.936;6.978;2023-05-10T01:51:35;15.32;;;11.48;;
20824;SDS011;10573;50.936;6.978;2023-05-10T01:54:06;15.80;;;11.82;;
20824;SDS011;10573;50.936;6.978;2023-05-10T01:56:35;15.55;;;11.50;;
20824;SDS011;10573;50.936;6.978;2023-05-10T01:59:04;12.60;;;10.98;;
20824;SDS011;10573;50.936;6.978;2023-05-10T02:01:33;13.80;;;11.13;;
20824;SDS011;10573;50.936;6.978;2023-05-10T02:04:01;13.98;;;10.95;;
20824;SDS011;10573;50.936;6.978;2023-05-10T02:06:28;13.15;;;10.88;;
20824;SDS011;10573;50.936;6.978;2023-05-10T02:08:55;13.60;;;10.85;;
20824;SDS011;10573;50.936;6.978;2023-05-10T02:11:22;14.30;;;10.48;;
20824;SDS011;10573;50.936;6.978;2023-05-10T02:13:49;14.48;;;11.32;;
20824;SDS011;10573;50.936;6.978;2023-05-10T02:16:16;14.38;;;11.95;;
20824;SDS011;10573;50.936;6.978;2023-05-10T02:18:47;13.43;;;10.07;;
20824;SDS011;10573;50.936;6.978;2023-05-10T02:21:13;13.43;;;10.07;;
20824;SDS011;10573;50.936;6.978;2023-05-10T02:23:40;12.70;;;9.98;;
20824;SDS011;10573;50.936;6.978;2023-05-10T02:26:06;13.25;;;10.00;;
20824;SDS011;10573;50.936;6.978;2023-05-10T02:28:33;14.27;;;10.33;;
20824;SDS011;10573;50.936;6.978;2023-05-10T02:31:02;12.43;;;9.63;;
20824;SDS011;10573;50.936;6.978;2023-05-10T02:33:28;9.38;;;7.53;;
20824;SDS011;10573;50.936;6.978;2023-05-10T02:35:56;9.40;;;6.90;;
20824;SDS011;10573;50.936;6.978;2023-05-10T02:38:22;6.40;;;5.67;;
20824;SDS011;10573;50.936;6.978;2023-05-10T02:40:49;6.95;;;5.72;;
20824;SDS011;10573;50.936;6.978;2023-05-10T02:43:16;8.60;;;6.15;;
20824;SDS011;10573;50.936;6.978;2023-05-10T02:45:43;6.25;;;5.65;;
20824;SDS011;10573;50.936;6.978;2023-05-10T02:48:12;7.10;;;6.40;;
20824;SDS011;10573;50.936;6.978;2023-05-10T02:50:38;6.77;;;6.07;;
20824;SDS011;10573;50.936;6.978;2023-05-10T02:53:11;6.83;;;5.90;;
20824;SDS011;10573;50.936;6.978;2023-05-10T02:55:44;7.28;;;6.25;;
20824;SDS011;10573;50.936;6.978;2023-05-10T02:58:14;9.57;;;7.00;;
20824;SDS011;10573;50.936;6.978;2023-05-10T03:00:39;8.40;;;6.80;;
20824;SDS011;10573;50.936;6.978;2023-05-10T03:03:05;8.30;;;7.05;;
20824;SDS011;10573;50.936;6.978;2023-05-10T03:05:30;8.47;;;7.10;;
20824;SDS011;10573;50.936;6.978;2023-05-10T03:07:56;10.68;;;7.10;;
20824;SDS011;10573;50.936;6.978;2023-05-10T03:10:26;9.13;;;7.27;;
20824;SDS011;10573;50.936;6.978;2023-05-10T03:15:53;7.32;;;6.45;;
20824;SDS011;10573;50.936;6.978;2023-05-10T03:19:06;7.45;;;6.72;;
20824;SDS011;10573;50.936;6.978;2023-05-10T03:21:41;7.45;;;6.22;;
20824;SDS011;10573;50.936;6.978;2023-05-10T03:24:12;7.82;;;7.03;;
20824;SDS011;10573;50.936;6.978;2023-05-10T03:26:40;8.27;;;7.05;;
20824;SDS011;10573;50.936;6.978;2023-05-10T03:29:10;7.07;;;6.30;;
20824;SDS011;10573;50.936;6.978;2023-05-10T03:31:37;6.78;;;5.63;;
20824;SDS011;10573;50.936;6.978;2023-05-10T03:34:03;6.82;;;6.00;;
20824;SDS011;10573;50.936;6.978;2023-05-10T03:36:29;6.93;;;5.80;;
20824;SDS011;10573;50.936;6.978;2023-05-10T03:38:54;7.40;;;6.60;;
20824;SDS011;10573;50.936;6.978;2023-05-10T03:41:19;7.80;;;7.00;;
20824;SDS011;10573;50.936;6.978;2023-05-10T03:43:45;11.77;;;6.97;;
20824;SDS011;10573;50.936;6.978;2023-05-10T03:46:11;7.57;;;6.37;;
20824;SDS011;10573;50.936;6.978;2023-05-10T03:48:36;9.67;;;7.20;;
20824;SDS011;10573;50.936;6.978;2023-05-10T03:51:01;14.13;;;8.47;;
20824;SDS011;10573;50.936;6.978;2023-05-10T03:53:27;12.37;;;9.37;;
20824;SDS011;10573;50.936;6.978;2023-05-10T03:55:52;11.80;;;9.60;;
20824;SDS011;10573;50.936;6.978;2023-05-10T03:58:18;15.07;;;10.40;;
20824;SDS011;10573;50.936;6.978;2023-05-10T04:00:43;14.13;;;11.20;;
20824;SDS011;10573;50.936;6.978;2023-05-10T04:03:10;15.60;;;11.40;;
20824;SDS011;10573;50.936;6.978;2023-05-10T04:05:36;17.80;;;11.32;;
20824;SDS011;10573;50.936;6.978;2023-05-10T04:08:02;16.67;;;12.23;;
20824;SDS011;10573;50.936;6.978;2023-05-10T04:10:29;15.05;;;11.52;;
20824;SDS011;10573;50.936;6.978;2023-05-10T04:12:54;19.02;;;12.48;;
20824;SDS011;10573;50.936;6.978;2023-05-10T04:15:20;16.67;;;12.63;;
20824;SDS011;10573;50.936;6.978;2023-05-10T04:17:46;15.75;;;12.35;;
20824;SDS011;10573;50.936;6.978;2023-05-10T04:20:12;18.27;;;12.32;;
20824;SDS011;10573;50.936;6.978;2023-05-10T04:22:38;16.77;;;12.48;;
20824;SDS011;10573;50.936;6.978;2023-05-10T04:25:04;18.47;;;12.50;;
20824;SDS011;10573;50.936;6.978;2023-05-10T04:27:30;17.55;;;13.27;;
20824;SDS011;10573;50.936;6.978;2023-05-10T04:29:56;19.33;;;13.13;;
20824;SDS011;10573;50.936;6.978;2023-05-10T04:32:22;17.55;;;13.02;;
20824;SDS011;10573;50.936;6.978;2023-05-10T04:34:47;19.17;;;12.90;;
20824;SDS011;10573;50.936;6.978;2023-05-10T04:37:13;19.73;;;12.70;;
20824;SDS011;10573;50.936;6.978;2023-05-10T04:39:38;21.53;;;12.87;;
20824;SDS011;10573;50.936;6.978;2023-05-10T04:42:03;18.90;;;12.63;;
20824;SDS011;10573;50.936;6.978;2023-05-10T04:44:30;17.38;;;13.07;;
20824;SDS011;10573;50.936;6.978;2023-05-10T04:46:59;18.05;;;12.68;;
20824;SDS011;10573;50.936;6.978;2023-05-10T04:49:25;19.60;;;13.25;;
20824;SDS011;10573;50.936;6.978;2023-05-10T04:51:50;17.23;;;12.75;;
20824;SDS011;10573;50.936;6.978;2023-05-10T04:54:15;21.13;;;13.30;;
20824;SDS011;10573;50.936;6.978;2023-05-10T04:56:41;18.88;;;13.05;;
20824;SDS011;10573;50.936;6.978;2023-05-10T04:59:07;18.47;;;12.87;;
20824;SDS011;10573;50.936;6.978;2023-05-10T05:01:32;19.27;;;12.85;;
20824;SDS011;10573;50.936;6.978;2023-05-10T05:03:58;17.50;;;12.43;;
20824;SDS011;10573;50.936;6.978;2023-05-10T05:06:23;21.13;;;12.93;;
20824;SDS011;10573;50.936;6.978;2023-05-10T05:08:50;21.73;;;12.90;;
20824;SDS011;10573;50.936;6.978;2023-05-10T05:11:15;20.20;;;12.97;;
20824;SDS011;10573;50.936;6.978;2023-05-10T05:13:41;19.48;;;12.13;;
20824;SDS011;10573;50.936;6.978;2023-05-10T05:16:07;21.20;;;13.18;;
20824;SDS011;10573;50.936;6.978;2023-05-10T05:18:32;19.47;;;12.87;;
20824;SDS011;10573;50.936;6.978;2023-05-10T05:20:57;20.10;;;12.35;;
20824;SDS011;10573;50.936;6.978;2023-05-10T05:23:23;20.50;;;12.47;;
20824;SDS011;10573;50.936;6.978;2023-05-10T05:25:51;19.02;;;11.73;;
20824;SDS011;10573;50.936;6.978;2023-05-10T05:28:17;18.23;;;12.53;;
20824;SDS011;10573;50.936;6.978;2023-05-10T05:30:43;19.35;;;12.88;;
20824;SDS011;10573;50.936;6.978;2023-05-10T05:33:09;24.30;;;12.47;;
20824;SDS011;10573;50.936;6.978;2023-05-10T05:35:34;18.48;;;11.80;;
20824;SDS011;10573;50.936;6.978;2023-05-10T05:38:00;19.53;;;11.20;;
20824;SDS011;10573;50.936;6.978;2023-05-10T05:40:26;20.08;;;11.25;;
20824;SDS011;10573;50.936;6.978;2023-05-10T05:42:51;19.17;;;11.70;;
20824;SDS011;10573;50.936;6.978;2023-05-10T05:45:16;16.70;;;11.17;;
20824;SDS011;10573;50.936;6.978;2023-05-10T05:47:42;17.87;;;11.50;;
20824;SDS011;10573;50.936;6.978;2023-05-10T05:50:07;20.97;;;12.63;;
20824;SDS011;10573;50.936;6.978;2023-05-10T05:52:33;20.35;;;11.63;;
20824;SDS011;10573;50.936;6.978;2023-05-10T05:54:58;18.27;;;11.63;;
20824;SDS011;10573;50.936;6.978;2023-05-10T05:57:24;18.13;;;11.20;;
20824;SDS011;10573;50.936;6.978;2023-05-10T05:59:51;19.85;;;11.52;;
20824;SDS011;10573;50.936;6.978;2023-05-10T06:02:17;17.80;;;10.90;;
20824;SDS011;10573;50.936;6.978;2023-05-10T06:04:42;17.30;;;10.70;;
20824;SDS011;10573;50.936;6.978;2023-05-10T06:07:08;16.60;;;10.40;;
20824;SDS011;10573;50.936;6.978;2023-05-10T06:09:33;19.40;;;10.57;;
20824;SDS011;10573;50.936;6.978;2023-05-10T06:11:58;19.03;;;11.20;;
20824;SDS011;10573;50.936;6.978;2023-05-10T06:14:24;23.52;;;11.20;;
20824;SDS011;10573;50.936;6.978;2023-05-10T06:16:49;18.63;;;10.67;;
20824;SDS011;10573;50.936;6.978;2023-05-10T06:19:15;17.70;;;10.38;;
20824;SDS011;10573;50.936;6.978;2023-05-10T06:21:40;21.73;;;11.00;;
20824;SDS011;10573;50.936;6.978;2023-05-10T06:24:06;15.93;;;11.15;;
20824;SDS011;10573;50.936;6.978;2023-05-10T06:26:31;16.73;;;10.77;;
20824;SDS011;10573;50.936;6.978;2023-05-10T06:28:57;17.48;;;10.52;;
20824;SDS011;10573;50.936;6.978;2023-05-10T06:31:23;16.50;;;10.80;;
20824;SDS011;10573;50.936;6.978;2023-05-10T06:33:48;21.77;;;11.10;;
20824;SDS011;10573;50.936;6.978;2023-05-10T06:36:13;17.42;;;10.23;;
20824;SDS011;10573;50.936;6.978;2023-05-10T06:38:39;18.57;;;11.17;;
20824;SDS011;10573;50.936;6.978;2023-05-10T06:41:05;18.67;;;10.90;;
20824;SDS011;10573;50.936;6.978;2023-05-10T06:43:30;21.73;;;11.70;;
20824;SDS011;10573;50.936;6.978;2023-05-10T06:45:56;19.10;;;11.00;;
20824;SDS011;10573;50.936;6.978;2023-05-10T06:48:22;22.00;;;11.30;;
20824;SDS011;10573;50.936;6.978;2023-05-10T06:50:47;18.90;;;11.38;;
20824;SDS011;10573;50.936;6.978;2023-05-10T06:53:13;21.40;;;11.47;;
20824;SDS011;10573;50.936;6.978;2023-05-10T06:55:38;20.73;;;11.60;;
20824;SDS011;10573;50.936;6.978;2023-05-10T06:58:04;21.67;;;12.23;;
20824;SDS011;10573;50.936;6.978;2023-05-10T07:00:30;18.60;;;11.87;;
20824;SDS011;10573;50.936;6.978;2023-05-10T07:02:55;20.40;;;11.83;;
20824;SDS011;10573;50.936;6.978;2023-05-10T07:05:20;21.50;;;11.77;;
20824;SDS011;10573;50.936;6.978;2023-05-10T07:07:46;20.63;;;12.65;;
20824;SDS011;10573;50.936;6.978;2023-05-10T07:10:11;21.07;;;12.40;;
20824;SDS011;10573;50.936;6.978;2023-05-10T07:12:37;18.90;;;12.40;;
20824;SDS011;10573;50.936;6.978;2023-05-10T07:15:03;22.97;;;12.70;;
20824;SDS011;10573;50.936;6.978;2023-05-10T07:17:29;21.55;;;12.30;;
20824;SDS011;10573;50.936;6.978;2023-05-10T07:19:54;21.93;;;12.70;;
20824;SDS011;10573;50.936;6.978;2023-05-10T07:22:20;21.48;;;13.48;;
20824;SDS011;10573;50.936;6.978;2023-05-10T07:24:45;21.60;;;14.07;;
20824;SDS011;10573;50.936;6.978;2023-05-10T07:27:11;22.73;;;14.75;;
20824;SDS011;10573;50.936;6.978;2023-05-10T07:29:37;26.45;;;15.23;;
20824;SDS011;10573;50.936;6.978;2023-05-10T07:32:03;28.50;;;14.55;;
20824;SDS011;10573;50.936;6.978;2023-05-10T07:34:29;27.20;;;14.25;;
20824;SDS011;10573;50.936;6.978;2023-05-10T07:36:56;27.23;;;15.52;;
20824;SDS011;10573;50.936;6.978;2023-05-10T07:39:22;21.83;;;12.93;;
20824;SDS011;10573;50.936;6.978;2023-05-10T07:41:48;20.30;;;12.82;;
20824;SDS011;10573;50.936;6.978;2023-05-10T07:44:13;17.37;;;11.17;;
20824;SDS011;10573;50.936;6.978;2023-05-10T07:46:39;18.15;;;11.25;;
20824;SDS011;10573;50.936;6.978;2023-05-10T07:49:04;25.67;;;12.47;;
20824;SDS011;10573;50.936;6.978;2023-05-10T07:51:30;18.30;;;11.07;;
20824;SDS011;10573;50.936;6.978;2023-05-10T07:53:55;20.63;;;12.20;;
20824;SDS011;10573;50.936;6.978;2023-05-10T07:56:26;18.83;;;12.20;;
20824;SDS011;10573;50.936;6.978;2023-05-10T07:59:03;20.67;;;12.18;;
20824;SDS011;10573;50.936;6.978;2023-05-10T08:01:31;20.88;;;12.68;;
20824;SDS011;10573;50.936;6.978;2023-05-10T08:03:58;19.10;;;11.63;;
20824;SDS011;10573;50.936;6.978;2023-05-10T08:06:23;17.20;;;11.45;;
20824;SDS011;10573;50.936;6.978;2023-05-10T08:08:51;18.58;;;11.20;;
20824;SDS011;10573;50.936;6.978;2023-05-10T08:11:18;18.57;;;11.33;;
20824;SDS011;10573;50.936;6.978;2023-05-10T08:13:47;15.45;;;10.65;;
20824;SDS011;10573;50.936;6.978;2023-05-10T08:16:14;15.50;;;10.50;;
20824;SDS011;10573;50.936;6.978;2023-05-10T08:18:40;16.10;;;8.88;;
20824;SDS011;10573;50.936;6.978;2023-05-10T08:21:06;12.73;;;8.70;;
20824;SDS011;10573;50.936;6.978;2023-05-10T08:23:32;15.10;;;8.30;;
20824;SDS011;10573;50.936;6.978;2023-05-10T08:25:57;14.20;;;8.50;;
20824;SDS011;10573;50.936;6.978;2023-05-10T08:28:22;13.03;;;8.63;;
20824;SDS011;10573;50.936;6.978;2023-05-10T08:30:49;11.83;;;8.43;;
20824;SDS011;10573;50.936;6.978;2023-05-10T08:33:15;13.35;;;8.48;;
20824;SDS011;10573;50.936;6.978;2023-05-10T08:35:42;9.98;;;7.65;;
20824;SDS011;10573;50.936;6.978;2023-05-10T08:38:07;10.37;;;7.40;;
20824;SDS011;10573;50.936;6.978;2023-05-10T08:40:33;10.00;;;6.50;;
20824;SDS011;10573;50.936;6.978;2023-05-10T08:43:07;10.60;;;7.10;;
20824;SDS011;10573;50.936;6.978;2023-05-10T08:45:39;8.45;;;6.72;;
20824;SDS011;10573;50.936;6.978;2023-05-10T08:48:07;10.88;;;7.70;;
20824;SDS011;10573;50.936;6.978;2023-05-10T08:50:38;11.07;;;7.17;;
20824;SDS011;10573;50.936;6.978;2023-05-10T08:53:06;9.80;;;6.85;;
20824;SDS011;10573;50.936;6.978;2023-05-10T08:55:34;10.30;;;7.15;;
20824;SDS011;10573;50.936;6.978;2023-05-10T08:58:02;11.40;;;6.82;;
20824;SDS011;10573;50.936;6.978;2023-05-10T09:00:28;9.20;;;7.15;;
20824;SDS011;10573;50.936;6.978;2023-05-10T09:02:54;11.13;;;7.10;;
20824;SDS011;10573;50.936;6.978;2023-05-10T09:05:20;11.10;;;7.57;;
20824;SDS011;10573;50.936;6.978;2023-05-10T09:07:45;12.33;;;7.97;;
20824;SDS011;10573;50.936;6.978;2023-05-10T09:10:11;11.82;;;7.68;;
20824;SDS011;10573;50.936;6.978;2023-05-10T09:12:38;10.67;;;8.03;;
20824;SDS011;10573;50.936;6.978;2023-05-10T09:15:04;9.37;;;7.43;;
20824;SDS011;10573;50.936;6.978;2023-05-10T09:17:31;10.18;;;7.93;;
20824;SDS011;10573;50.936;6.978;2023-05-10T09:20:00;11.40;;;7.43;;
20824;SDS011;10573;50.936;6.978;2023-05-10T09:22:26;11.77;;;7.80;;
20824;SDS011;10573;50.936;6.978;2023-05-10T09:25:04;10.93;;;8.00;;
20824;SDS011;10573;50.936;6.978;2023-05-10T09:27:31;10.13;;;7.80;;
20824;SDS011;10573;50.936;6.978;2023-05-10T09:29:59;9.77;;;6.95;;
20824;SDS011;10573;50.936;6.978;2023-05-10T09:32:37;9.03;;;7.00;;
20824;SDS011;10573;50.936;6.978;2023-05-10T09:35:07;8.13;;;6.90;;
20824;SDS011;10573;50.936;6.978;2023-05-10T09:37:43;8.05;;;6.78;;
20824;SDS011;10573;50.936;6.978;2023-05-10T09:40:12;8.63;;;7.35;;
20824;SDS011;10573;50.936;6.978;2023-05-10T09:42:42;11.25;;;7.60;;
20824;SDS011;10573;50.936;6.978;2023-05-10T09:45:15;17.97;;;10.50;;
20824;SDS011;10573;50.936;6.978;2023-05-10T09:47:40;14.40;;;9.80;;
20824;SDS011;10573;50.936;6.978;2023-05-10T09:50:06;13.90;;;9.40;;
20824;SDS011;10573;50.936;6.978;2023-05-10T09:55:17;14.55;;;9.73;;
20824;SDS011;10573;50.936;6.978;2023-05-10T09:57:45;17.45;;;11.07;;
20824;SDS011;10573;50.936;6.978;2023-05-10T10:00:14;18.90;;;11.70;;
20824;SDS011;10573;50.936;6.978;2023-05-10T10:02:44;18.08;;;11.02;;
20824;SDS011;10573;50.936;6.978;2023-05-10T10:05:11;18.20;;;11.30;;
20824;SDS011;10573;50.936;6.978;2023-05-10T10:07:36;18.87;;;11.33;;
20824;SDS011;10573;50.936;6.978;2023-05-10T10:10:02;18.63;;;10.57;;
20824;SDS011;10573;50.936;6.978;2023-05-10T10:12:30;19.17;;;11.50;;
20824;SDS011;10573;50.936;6.978;2023-05-10T10:14:55;19.55;;;11.23;;
20824;SDS011;10573;50.936;6.978;2023-05-10T10:17:21;17.58;;;10.52;;
20824;SDS011;10573;50.936;6.978;2023-05-10T10:19:46;17.43;;;9.77;;
20824;SDS011;10573;50.936;6.978;2023-05-10T10:22:13;19.55;;;10.30;;
20824;SDS011;10573;50.936;6.978;2023-05-10T10:24:38;17.07;;;10.23;;
20824;SDS011;10573;50.936;6.978;2023-05-10T10:27:12;15.02;;;9.32;;
20824;SDS011;10573;50.936;6.978;2023-05-10T10:32:59;10.68;;;8.00;;
20824;SDS011;10573;50.936;6.978;2023-05-10T10:35:36;11.43;;;7.10;;
20824;SDS011;10573;50.936;6.978;2023-05-10T10:38:02;10.73;;;7.28;;
20824;SDS011;10573;50.936;6.978;2023-05-10T10:40:32;9.47;;;7.03;;
20824;SDS011;10573;50.936;6.978;2023-05-10T10:43:20;8.68;;;6.40;;
20824;SDS011;10573;50.936;6.978;2023-05-10T10:48:38;10.13;;;6.60;;
20824;SDS011;10573;50.936;6.978;2023-05-10T10:51:04;9.20;;;6.83;;
20824;SDS011;10573;50.936;6.978;2023-05-10T10:53:29;10.00;;;7.00;;
20824;SDS011;10573;50.936;6.978;2023-05-10T10:56:05;9.47;;;6.27;;
20824;SDS011;10573;50.936;6.978;2023-05-10T10:58:39;11.97;;;7.13;;
20824;SDS011;10573;50.936;6.978;2023-05-10T11:01:17;11.77;;;7.50;;
20824;SDS011;10573;50.936;6.978;2023-05-10T11:06:31;10.73;;;7.55;;
20824;SDS011;10573;50.936;6.978;2023-05-10T11:08:58;12.82;;;7.53;;
20824;SDS011;10573;50.936;6.978;2023-05-10T11:11:24;11.23;;;7.57;;
20824;SDS011;10573;50.936;6.978;2023-05-10T11:13:50;11.30;;;7.82;;
20824;SDS011;10573;50.936;6.978;2023-05-10T11:16:20;9.20;;;6.30;;
20824;SDS011;10573;50.936;6.978;2023-05-10T11:21:23;7.47;;;5.60;;
20824;SDS011;10573;50.936;6.978;2023-05-10T11:23:49;7.53;;;5.28;;
20824;SDS011;10573;50.936;6.978;2023-05-10T11:26:16;9.35;;;5.30;;
20824;SDS011;10573;50.936;6.978;2023-05-10T11:28:43;8.30;;;4.90;;
20824;SDS011;10573;50.936;6.978;2023-05-10T11:31:08;6.28;;;4.07;;
20824;SDS011;10573;50.936;6.978;2023-05-10T11:36:15;5.03;;;3.83;;
20824;SDS011;10573;50.936;6.978;2023-05-10T11:38:44;5.00;;;4.10;;
20824;SDS011;10573;50.936;6.978;2023-05-10T11:41:11;4.25;;;3.60;;
20824;SDS011;10573;50.936;6.978;2023-05-10T11:43:40;4.70;;;3.95;;
20824;SDS011;10573;50.936;6.978;2023-05-10T11:46:07;4.03;;;3.50;;
20824;SDS011;10573;50.936;6.978;2023-05-10T11:48:36;4.68;;;3.55;;
20824;SDS011;10573;50.936;6.978;2023-05-10T11:51:03;5.35;;;3.65;;
20824;SDS011;10573;50.936;6.978;2023-05-10T11:53:30;4.95;;;3.45;;
20824;SDS011;10573;50.936;6.978;2023-05-10T11:56:09;3.78;;;3.38;;
20824;SDS011;10573;50.936;6.978;2023-05-10T11:58:35;3.97;;;3.00;;
20824;SDS011;10573;50.936;6.978;2023-05-10T12:01:02;5.00;;;3.17;;
20824;SDS011;10573;50.936;6.978;2023-05-10T12:03:29;2.88;;;2.50;;
20824;SDS011;10573;50.936;6.978;2023-05-10T12:05:55;4.85;;;2.38;;
20824;SDS011;10573;50.936;6.978;2023-05-10T12:08:22;3.28;;;2.20;;
20824;SDS011;10573;50.936;6.978;2023-05-10T12:10:49;2.95;;;2.20;;
20824;SDS011;10573;50.936;6.978;2023-05-10T12:13:15;2.30;;;2.00;;
20824;SDS011;10573;50.936;6.978;2023-05-10T12:15:41;1.93;;;1.73;;
20824;SDS011;10573;50.936;6.978;2023-05-10T12:18:13;3.95;;;2.13;;
20824;SDS011;10573;50.936;6.978;2023-05-10T12:20:40;5.35;;;3.00;;
20824;SDS011;10573;50.936;6.978;2023-05-10T12:23:07;2.83;;;2.03;;
20824;SDS011;10573;50.936;6.978;2023-05-10T12:25:34;2.53;;;2.33;;
20824;SDS011;10573;50.936;6.978;2023-05-10T12:28:04;3.43;;;2.40;;
20824;SDS011;10573;50.936;6.978;2023-05-10T12:30:32;2.80;;;2.35;;
20824;SDS011;10573;50.936;6.978;2023-05-10T12:33:08;1.77;;;1.50;;
20824;SDS011;10573;50.936;6.978;2023-05-10T12:35:46;2.38;;;1.90;;
20824;SDS011;10573;50.936;6.978;2023-05-10T12:38:29;3.00;;;1.60;;
20824;SDS011;10573;50.936;6.978;2023-05-10T12:40:58;1.88;;;1.58;;
20824;SDS011;10573;50.936;6.978;2023-05-10T12:43:24;1.58;;;1.33;;
20824;SDS011;10573;50.936;6.978;2023-05-10T12:45:50;1.60;;;1.50;;
20824;SDS011;10573;50.936;6.978;2023-05-10T12:48:16;2.77;;;1.47;;
20824;SDS011;10573;50.936;6.978;2023-05-10T12:50:41;3.92;;;1.52;;
20824;SDS011;10573;50.936;6.978;2023-05-10T12:53:06;1.90;;;1.67;;
20824;SDS011;10573;50.936;6.978;2023-05-10T12:55:32;1.70;;;1.40;;
20824;SDS011;10573;50.936;6.978;2023-05-10T12:57:57;1.25;;;1.10;;
20824;SDS011;10573;50.936;6.978;2023-05-10T13:00:23;4.20;;;0.90;;
20824;SDS011;10573;50.936;6.978;2023-05-10T13:02:48;1.10;;;0.90;;
20824;SDS011;10573;50.936;6.978;2023-05-10T13:05:14;1.40;;;1.10;;
20824;SDS011;10573;50.936;6.978;2023-05-10T13:07:39;2.30;;;1.40;;
20824;SDS011;10573;50.936;6.978;2023-05-10T13:10:06;1.80;;;1.40;;
20824;SDS011;10573;50.936;6.978;2023-05-10T13:12:31;2.53;;;1.40;;
20824;SDS011;10573;50.936;6.978;2023-05-10T13:14:57;1.57;;;1.20;;
20824;SDS011;10573;50.936;6.978;2023-05-10T13:17:22;1.30;;;1.20;;
20824;SDS011;10573;50.936;6.978;2023-05-10T13:19:48;1.00;;;0.90;;
20824;SDS011;10573;50.936;6.978;2023-05-10T13:22:13;1.37;;;1.00;;
20824;SDS011;10573;50.936;6.978;2023-05-10T13:24:39;2.00;;;1.10;;
20824;SDS011;10573;50.936;6.978;2023-05-10T13:27:04;3.83;;;2.60;;
20824;SDS011;10573;50.936;6.978;2023-05-10T13:29:30;0.90;;;0.73;;
20824;SDS011;10573;50.936;6.978;2023-05-10T13:31:55;0.80;;;0.80;;
20824;SDS011;10573;50.936;6.978;2023-05-10T13:34:21;0.80;;;0.60;;
20824;SDS011;10573;50.936;6.978;2023-05-10T13:36:47;1.08;;;0.70;;
20824;SDS011;10573;50.936;6.978;2023-05-10T13:39:13;0.90;;;0.80;;
20824;SDS011;10573;50.936;6.978;2023-05-10T13:41:39;1.60;;;1.10;;
20824;SDS011;10573;50.936;6.978;2023-05-10T13:44:04;1.30;;;0.80;;
20824;SDS011;10573;50.936;6.978;2023-05-10T13:46:30;2.08;;;0.50;;
20824;SDS011;10573;50.936;6.978;2023-05-10T13:48:55;0.75;;;0.75;;
20824;SDS011;10573;50.936;6.978;2023-05-10T14:10:46;1.08;;;0.68;;
20824;SDS011;10573;50.936;6.978;2023-05-10T14:13:11;1.63;;;0.90;;
20824;SDS011;10573;50.936;6.978;2023-05-10T14:15:37;1.02;;;0.68;;
20824;SDS011;10573;50.936;6.978;2023-05-10T14:18:03;0.75;;;0.70;;
20824;SDS011;10573;50.936;6.978;2023-05-10T14:20:28;1.20;;;0.75;;
20824;SDS011;10573;50.936;6.978;2023-05-10T14:22:54;7.32;;;1.70;;
20824;SDS011;10573;50.936;6.978;2023-05-10T14:25:19;1.00;;;0.60;;
20824;SDS011;10573;50.936;6.978;2023-05-10T14:27:45;0.50;;;0.50;;
20824;SDS011;10573;50.936;6.978;2023-05-10T14:30:11;1.35;;;0.60;;
20824;SDS011;10573;50.936;6.978;2023-05-10T14:32:37;1.92;;;0.60;;
20824;SDS011;10573;50.936;6.978;2023-05-10T14:35:02;1.20;;;0.60;;
20824;SDS011;10573;50.936;6.978;2023-05-10T14:37:28;2.30;;;0.73;;
20824;SDS011;10573;50.936;6.978;2023-05-10T14:39:53;2.10;;;0.60;;
20824;SDS011;10573;50.936;6.978;2023-05-10T14:42:19;3.23;;;0.60;;
20824;SDS011;10573;50.936;6.978;2023-05-10T14:44:44;1.20;;;0.60;;
20824;SDS011;10573;50.936;6.978;2023-05-10T14:47:10;1.42;;;0.65;;
20824;SDS011;10573;50.936;6.978;2023-05-10T14:49:35;1.13;;;0.70;;
20824;SDS011;10573;50.936;6.978;2023-05-10T14:52:01;1.48;;;0.73;;
20824;SDS011;10573;50.936;6.978;2023-05-10T14:54:26;2.50;;;0.90;;
20824;SDS011;10573;50.936;6.978;2023-05-10T14:56:52;1.77;;;0.70;;
20824;SDS011;10573;50.936;6.978;2023-05-10T14:59:17;2.83;;;0.97;;
20824;SDS011;10573;50.936;6.978;2023-05-10T15:01:43;1.20;;;0.60;;
20824;SDS011;10573;50.936;6.978;2023-05-10T15:04:09;1.85;;;0.90;;
20824;SDS011;10573;50.936;6.978;2023-05-10T15:06:34;1.93;;;0.60;;
20824;SDS011;10573;50.936;6.978;2023-05-10T15:09:00;5.80;;;0.95;;
20824;SDS011;10573;50.936;6.978;2023-05-10T15:11:28;1.15;;;0.70;;
20824;SDS011;10573;50.936;6.978;2023-05-10T15:13:54;1.90;;;1.00;;
20824;SDS011;10573;50.936;6.978;2023-05-10T15:16:20;1.30;;;0.90;;
20824;SDS011;10573;50.936;6.978;2023-05-10T15:18:45;3.95;;;1.00;;
20824;SDS011;10573;50.936;6.978;2023-05-10T15:21:10;2.03;;;1.07;;
20824;SDS011;10573;50.936;6.978;2023-05-10T15:23:37;1.63;;;0.95;;
20824;SDS011;10573;50.936;6.978;2023-05-10T15:26:02;3.40;;;1.20;;
20824;SDS011;10573;50.936;6.978;2023-05-10T15:28:28;2.77;;;1.10;;
20824;SDS011;10573;50.936;6.978;2023-05-10T15:30:54;1.60;;;1.50;;